createdAt,value
2019-05-14T03:35:41.173Z,8.47
2019-05-14T03:36:18.387Z,9.13
2019-05-14T03:37:05.032Z,10.63
2019-05-14T03:37:43.418Z,12.37
2019-05-14T03:38:22.315Z,9.00
2019-05-14T03:39:02.907Z,12.20
2019-05-14T03:39:41.603Z,8.63
2019-05-14T03:40:20.112Z,10.23
2019-05-14T03:41:00.130Z,14.00
2019-05-14T03:41:39.840Z,9.20
2019-05-14T03:42:20.780Z,12.40
2019-05-14T03:43:00.042Z,10.07
2019-05-14T03:43:39.228Z,9.67
2019-05-14T03:44:19.968Z,11.47
2019-05-14T03:44:59.711Z,11.60
2019-05-14T03:45:39.187Z,7.23
2019-05-14T03:46:20.585Z,10.97
2019-05-14T03:47:04.658Z,8.90
2019-05-14T03:47:39.337Z,9.07
2019-05-14T03:48:19.297Z,7.43
2019-05-14T03:49:00.088Z,11.87
2019-05-14T03:49:39.746Z,8.40
2019-05-14T03:50:19.180Z,7.70
2019-05-14T03:51:00.321Z,7.17
2019-05-14T03:51:39.361Z,7.53
2019-05-14T03:52:19.878Z,12.10
2019-05-14T03:52:59.330Z,8.10
2019-05-14T03:53:55.004Z,11.87
2019-05-14T03:54:19.431Z,9.53
2019-05-14T03:55:03.941Z,8.10
2019-05-14T03:55:40.340Z,11.30
2019-05-14T03:56:19.303Z,7.03
2019-05-14T03:57:00.284Z,9.33
2019-05-14T03:57:39.967Z,8.53
2019-05-14T03:58:21.105Z,7.57
2019-05-14T03:58:59.876Z,7.23
2019-05-14T03:59:40.159Z,10.07
2019-05-14T04:00:20.847Z,10.98
2019-05-14T04:01:02.591Z,8.47
2019-05-14T04:01:41.416Z,7.80
2019-05-14T04:02:20.361Z,10.13
2019-05-14T04:03:00.217Z,7.63
2019-05-14T04:03:40.069Z,8.70
2019-05-14T04:04:19.907Z,7.27
2019-05-14T04:04:59.997Z,7.47
2019-05-14T04:05:40.131Z,8.13
2019-05-14T04:06:19.263Z,7.77
2019-05-14T04:06:59.874Z,8.70
2019-05-14T04:07:39.358Z,7.50
2019-05-14T04:08:21.420Z,11.60
2019-05-14T04:09:00.556Z,9.73
2019-05-14T04:09:39.979Z,9.20
2019-05-14T04:10:19.451Z,10.63
2019-05-14T04:10:59.251Z,8.53
2019-05-14T04:11:39.858Z,7.80
2019-05-14T04:12:19.386Z,9.40
2019-05-14T04:12:59.874Z,8.57
2019-05-14T04:13:40.649Z,11.10
2019-05-14T04:14:20.075Z,7.20
2019-05-14T04:14:59.669Z,6.90
2019-05-14T04:15:39.228Z,8.27
2019-05-14T04:16:20.200Z,7.73
2019-05-14T04:17:08.918Z,10.70
2019-05-14T04:17:42.333Z,10.30
2019-05-14T04:18:19.287Z,11.30
2019-05-14T04:18:59.433Z,10.10
2019-05-14T04:19:39.436Z,8.00
2019-05-14T04:20:20.624Z,8.90
2019-05-14T04:21:00.989Z,11.57
2019-05-14T04:21:40.194Z,10.23
2019-05-14T04:22:19.285Z,7.63
2019-05-14T04:23:00.034Z,7.10
2019-05-14T04:23:39.918Z,8.43
2019-05-14T04:24:20.150Z,7.53
2019-05-14T04:24:59.651Z,9.03
2019-05-14T04:25:39.155Z,8.77
2019-05-14T04:26:20.007Z,8.30
2019-05-14T04:27:07.540Z,9.00
2019-05-14T04:27:40.030Z,7.20
2019-05-14T04:28:19.629Z,9.30
2019-05-14T04:29:00.442Z,7.93
2019-05-14T04:29:39.659Z,16.33
2019-05-14T04:30:24.038Z,8.90
2019-05-14T04:31:00.393Z,12.40
2019-05-14T04:31:39.217Z,8.50
2019-05-14T04:32:20.089Z,7.37
2019-05-14T04:32:59.373Z,10.50
2019-05-14T04:33:39.453Z,9.17
2019-05-14T04:34:19.506Z,7.23
2019-05-14T04:34:59.706Z,8.20
2019-05-14T04:35:40.113Z,14.60
2019-05-14T04:36:19.470Z,8.53
2019-05-14T04:36:59.447Z,9.53
2019-05-14T04:37:39.882Z,11.20
2019-05-14T04:38:20.163Z,10.27
2019-05-14T04:39:00.594Z,10.30
2019-05-14T04:39:39.826Z,12.17
2019-05-14T04:40:19.135Z,9.60
2019-05-14T04:40:59.832Z,12.90
2019-05-14T04:41:39.445Z,9.37
2019-05-14T04:42:20.320Z,14.37
2019-05-14T04:42:59.148Z,13.50
2019-05-14T04:43:40.086Z,9.03
2019-05-14T04:44:19.212Z,12.70
2019-05-14T04:45:00.844Z,11.20
2019-05-14T04:45:39.550Z,13.53
2019-05-14T04:46:19.892Z,9.70
2019-05-14T04:46:59.908Z,14.20
2019-05-14T04:47:42.135Z,12.57
2019-05-14T04:48:31.188Z,15.27
2019-05-14T04:48:59.855Z,10.20
2019-05-14T04:49:39.929Z,14.90
2019-05-14T04:50:20.058Z,14.50
2019-05-14T04:51:00.541Z,13.07
2019-05-14T04:51:39.853Z,16.10
2019-05-14T04:52:20.508Z,10.20
2019-05-14T04:53:00.086Z,11.03
2019-05-14T04:53:39.595Z,13.20
2019-05-14T04:54:19.429Z,13.83
2019-05-14T04:54:59.675Z,12.00
2019-05-14T04:55:40.071Z,13.57
2019-05-14T04:56:19.587Z,9.00
2019-05-14T04:56:59.968Z,14.27
2019-05-14T04:57:39.541Z,11.50
2019-05-14T04:58:21.671Z,11.83
2019-05-14T04:58:59.717Z,10.87
2019-05-14T04:59:39.766Z,9.37
2019-05-14T05:00:20.065Z,10.80
2019-05-14T05:01:00.538Z,12.00
2019-05-14T05:01:40.210Z,10.40
2019-05-14T05:02:20.104Z,13.73
2019-05-14T05:02:59.989Z,11.67
2019-05-14T05:03:39.934Z,10.33
2019-05-14T05:04:20.212Z,12.60
2019-05-14T05:04:59.636Z,13.90
2019-05-14T05:05:39.383Z,15.83
2019-05-14T05:06:19.280Z,11.13
2019-05-14T05:06:59.231Z,17.57
2019-05-14T05:07:40.417Z,13.83
2019-05-14T05:08:19.930Z,13.97
2019-05-14T05:09:00.039Z,13.13
2019-05-14T05:09:39.815Z,12.00
2019-05-14T05:10:19.997Z,18.33
2019-05-14T05:11:00.112Z,15.10
2019-05-14T05:11:39.633Z,11.07
2019-05-14T05:12:19.696Z,15.57
2019-05-14T05:12:58.887Z,16.00
2019-05-14T05:13:39.583Z,14.97
2019-05-14T05:14:19.119Z,51.63
2019-05-14T05:14:58.672Z,12.93
2019-05-14T05:15:39.529Z,9.63
2019-05-14T05:16:19.349Z,9.50
2019-05-14T05:16:59.740Z,68.23
2019-05-14T05:17:47.187Z,12.73
2019-05-14T05:18:18.829Z,14.73
2019-05-14T05:18:59.422Z,10.53
2019-05-14T05:19:39.319Z,10.80
2019-05-14T05:20:19.333Z,16.40
2019-05-14T05:20:58.699Z,35.50
2019-05-14T05:21:38.789Z,15.57
2019-05-14T05:22:19.556Z,16.93
2019-05-14T05:22:59.048Z,12.47
2019-05-14T05:23:38.738Z,18.17
2019-05-14T05:24:18.393Z,12.90
2019-05-14T05:24:59.002Z,11.80
2019-05-14T05:25:38.456Z,37.83
2019-05-14T05:26:18.465Z,10.93
2019-05-14T05:26:58.539Z,33.80
2019-05-14T05:27:38.228Z,11.17
2019-05-14T05:28:19.042Z,9.73
2019-05-14T05:29:05.511Z,17.57
2019-05-14T05:29:39.229Z,24.07
2019-05-14T05:30:18.968Z,35.93
2019-05-14T05:30:58.707Z,19.57
2019-05-14T05:31:38.132Z,12.57
2019-05-14T05:32:19.191Z,11.17
2019-05-14T05:32:59.524Z,13.17
2019-05-14T05:33:38.395Z,9.47
2019-05-14T05:34:19.271Z,38.43
2019-05-14T05:34:58.646Z,17.20
2019-05-14T05:35:40.373Z,11.80
2019-05-14T05:36:18.616Z,11.23
2019-05-14T05:36:59.184Z,9.20
2019-05-14T05:37:38.410Z,11.67
2019-05-14T05:38:18.404Z,8.50
2019-05-14T05:38:59.259Z,12.30
2019-05-14T05:39:38.663Z,7.33
2019-05-14T05:40:19.641Z,11.60
2019-05-14T05:40:59.940Z,64.50
2019-05-14T05:41:38.494Z,7.47
2019-05-14T05:42:18.781Z,10.27
2019-05-14T05:42:58.268Z,8.67
2019-05-14T05:43:39.111Z,16.40
2019-05-14T05:44:18.771Z,29.37
2019-05-14T05:44:58.745Z,10.27
2019-05-14T05:45:38.075Z,15.13
2019-05-14T05:46:19.222Z,13.30
2019-05-14T05:46:59.741Z,16.13
2019-05-14T05:47:39.100Z,13.27
2019-05-14T05:48:18.775Z,16.50
2019-05-14T05:48:58.683Z,13.70
2019-05-14T05:49:38.132Z,8.27
2019-05-14T05:50:19.311Z,8.68
2019-05-14T05:50:59.092Z,8.97
2019-05-14T05:51:39.245Z,13.87
2019-05-14T05:52:19.121Z,13.13
2019-05-14T05:52:58.569Z,12.40
2019-05-14T05:53:39.072Z,74.60
2019-05-14T05:54:18.535Z,15.63
2019-05-14T05:54:58.402Z,16.90
2019-05-14T05:55:39.268Z,12.10
2019-05-14T05:56:18.721Z,62.47
2019-05-14T05:56:58.166Z,14.00
2019-05-14T05:57:39.009Z,12.30
2019-05-14T05:58:19.537Z,14.63
2019-05-14T05:58:57.494Z,20.90
2019-05-14T05:59:36.336Z,11.97
2019-05-14T06:00:15.300Z,11.17
2019-05-14T06:00:59.143Z,10.77
2019-05-14T06:01:44.915Z,18.90
2019-05-14T06:02:18.673Z,69.43
2019-05-14T06:02:59.126Z,9.53
2019-05-14T06:03:39.287Z,9.67
2019-05-14T06:04:18.281Z,10.30
2019-05-14T06:04:58.615Z,12.40
2019-05-14T06:05:38.912Z,12.20
2019-05-14T06:06:20.079Z,8.10
2019-05-14T06:07:02.228Z,13.30
2019-05-14T06:07:39.697Z,6.23
2019-05-14T06:08:18.944Z,11.00
2019-05-14T06:08:58.354Z,5.93
2019-05-14T06:09:38.130Z,12.03
2019-05-14T06:10:18.702Z,9.93
2019-05-14T06:10:59.147Z,8.93
2019-05-14T06:11:38.089Z,5.60
2019-05-14T06:12:19.024Z,10.63
2019-05-14T06:12:58.583Z,6.60
2019-05-14T06:13:39.185Z,9.77
2019-05-14T06:14:18.645Z,14.10
2019-05-14T06:14:57.943Z,11.30
2019-05-14T06:15:47.576Z,6.77
2019-05-14T06:16:18.627Z,10.97
2019-05-14T06:16:59.105Z,7.83
2019-05-14T06:17:39.099Z,49.30
2019-05-14T06:18:21.732Z,61.53
2019-05-14T06:18:58.809Z,20.33
2019-05-14T06:19:38.140Z,10.83
2019-05-14T06:20:18.971Z,147.37
2019-05-14T06:20:58.626Z,28.57
2019-05-14T06:21:39.817Z,6.83
2019-05-14T06:22:18.810Z,131.70
2019-05-14T06:22:58.879Z,12.13
2019-05-14T06:23:38.615Z,10.23
2019-05-14T06:24:19.321Z,13.20
2019-05-14T06:24:58.609Z,10.47
2019-05-14T06:25:39.938Z,14.00
2019-05-14T06:26:19.193Z,11.80
2019-05-14T06:26:58.742Z,9.10
2019-05-14T06:27:38.088Z,45.50
2019-05-14T06:28:20.538Z,65.10
2019-05-14T06:28:59.727Z,46.80
2019-05-14T06:29:38.286Z,10.90
2019-05-14T06:30:18.326Z,12.80
2019-05-14T06:30:58.886Z,8.80
2019-05-14T06:31:38.663Z,7.80
2019-05-14T06:32:18.690Z,13.53
2019-05-14T06:32:59.374Z,9.70
2019-05-14T06:33:39.392Z,11.90
2019-05-14T06:34:18.839Z,24.33
2019-05-14T06:34:59.352Z,14.23
2019-05-14T06:35:39.671Z,13.20
2019-05-14T06:36:19.706Z,7.40
2019-05-14T06:36:59.202Z,110.10
2019-05-14T06:37:38.457Z,9.93
2019-05-14T06:38:18.515Z,14.73
2019-05-14T06:38:58.654Z,9.17
2019-05-14T06:39:39.056Z,13.47
2019-05-14T06:40:19.301Z,101.90
2019-05-14T06:40:59.282Z,11.77
2019-05-14T06:41:42.605Z,9.73
2019-05-14T06:42:19.443Z,11.53
2019-05-14T06:42:59.170Z,13.40
2019-05-14T06:43:39.234Z,10.83
2019-05-14T06:44:18.677Z,8.97
2019-05-14T06:44:58.566Z,15.00
2019-05-14T06:45:38.850Z,10.63
2019-05-14T06:46:19.292Z,11.10
2019-05-14T06:46:59.088Z,13.20
2019-05-14T06:47:38.364Z,7.37
2019-05-14T06:48:30.155Z,13.77
2019-05-14T06:48:59.003Z,12.20
2019-05-14T06:49:38.596Z,9.17
2019-05-14T06:50:19.023Z,20.62
2019-05-14T06:50:58.462Z,18.20
2019-05-14T06:51:39.473Z,7.87
2019-05-14T06:52:18.737Z,9.03
2019-05-14T06:52:58.187Z,7.10
2019-05-14T06:53:39.116Z,9.47
2019-05-14T06:54:19.615Z,8.60
2019-05-14T06:54:58.298Z,7.67
2019-05-14T06:55:39.353Z,12.47
2019-05-14T06:56:18.978Z,29.47
2019-05-14T06:56:58.266Z,12.90
2019-05-14T06:57:39.112Z,9.30
2019-05-14T06:58:20.130Z,30.60
2019-05-14T06:58:58.370Z,10.17
2019-05-14T06:59:38.080Z,9.77
2019-05-14T07:00:18.926Z,76.40
2019-05-14T07:00:58.674Z,10.70
2019-05-14T07:01:38.413Z,10.30
2019-05-14T07:02:19.238Z,13.93
2019-05-14T07:02:58.285Z,8.80
2019-05-14T07:03:38.273Z,11.83
2019-05-14T07:04:18.229Z,15.80
2019-05-14T07:04:58.887Z,6.60
2019-05-14T07:05:38.969Z,8.23
2019-05-14T07:06:18.678Z,50.87
2019-05-14T07:06:59.030Z,12.53
2019-05-14T07:07:40.496Z,59.03
2019-05-14T07:08:18.822Z,23.43
2019-05-14T07:08:58.876Z,55.73
2019-05-14T07:09:38.402Z,15.97
2019-05-14T07:10:19.602Z,170.00
2019-05-14T07:10:59.309Z,62.30
2019-05-14T07:11:38.793Z,33.23
2019-05-14T07:12:19.181Z,27.90
2019-05-14T07:12:59.197Z,82.30
2019-05-14T07:13:38.490Z,163.77
2019-05-14T07:14:18.947Z,54.40
2019-05-14T07:14:58.520Z,94.17
2019-05-14T07:15:38.663Z,20.57
2019-05-14T07:16:19.680Z,20.40
2019-05-14T07:16:59.009Z,42.33
2019-05-14T07:17:38.460Z,30.43
2019-05-14T07:18:19.049Z,34.00
2019-05-14T07:18:59.189Z,46.83
2019-05-14T07:19:38.476Z,59.33
2019-05-14T07:20:18.885Z,63.17
2019-05-14T07:20:58.891Z,49.10
2019-05-14T07:21:38.383Z,56.07
2019-05-14T07:22:19.360Z,57.63
2019-05-14T07:22:58.653Z,38.47
2019-05-14T07:23:38.391Z,42.27
2019-05-14T07:24:19.604Z,50.17
2019-05-14T07:24:58.720Z,47.27
2019-05-14T07:25:39.391Z,50.93
2019-05-14T07:26:19.271Z,48.43
2019-05-14T07:26:58.834Z,55.27
2019-05-14T07:27:39.189Z,53.83
2019-05-14T07:28:19.327Z,37.87
2019-05-14T07:28:59.056Z,50.30
2019-05-14T07:29:38.693Z,55.07
2019-05-14T07:30:19.325Z,40.00
2019-05-14T07:30:59.278Z,81.07
2019-05-14T07:31:38.577Z,81.30
2019-05-14T07:32:24.168Z,31.23
2019-05-14T07:33:03.886Z,57.17
2019-05-14T07:33:42.655Z,25.93
2019-05-14T07:34:21.615Z,21.33
2019-05-14T07:35:00.340Z,178.90
2019-05-14T07:35:39.164Z,41.50
2019-05-14T07:36:18.857Z,30.07
2019-05-14T07:36:58.751Z,24.17
2019-05-14T07:37:39.549Z,94.67
2019-05-14T07:38:19.549Z,209.63
2019-05-14T07:39:00.212Z,61.37
2019-05-14T07:39:38.664Z,98.63
2019-05-14T07:40:19.208Z,63.50
2019-05-14T07:40:58.519Z,11.93
2019-05-14T07:41:38.953Z,8.47
2019-05-14T07:42:18.294Z,16.07
2019-05-14T07:42:58.352Z,16.53
2019-05-14T07:43:39.135Z,10.10
2019-05-14T07:44:18.249Z,120.07
2019-05-14T07:44:58.876Z,50.40
2019-05-14T07:45:38.527Z,17.60
2019-05-14T07:46:19.144Z,51.93
2019-05-14T07:46:58.943Z,9.57
2019-05-14T07:47:38.866Z,14.20
2019-05-14T07:48:19.028Z,13.13
2019-05-14T07:49:05.410Z,11.70
2019-05-14T07:49:38.651Z,10.67
2019-05-14T07:50:19.638Z,13.62
2019-05-14T07:50:59.930Z,12.80
2019-05-14T07:51:38.911Z,11.53
2019-05-14T07:52:19.804Z,11.63
2019-05-14T07:52:58.733Z,11.00
2019-05-14T07:53:41.595Z,15.87
2019-05-14T07:54:19.497Z,11.07
2019-05-14T07:54:58.665Z,11.27
2019-05-14T07:55:38.539Z,13.73
2019-05-14T07:56:18.735Z,8.13
2019-05-14T07:56:59.072Z,9.90
2019-05-14T07:57:39.626Z,10.70
2019-05-14T07:58:19.617Z,16.23
2019-05-14T07:59:02.152Z,10.23
2019-05-14T07:59:39.092Z,9.07
2019-05-14T08:00:19.171Z,14.60
2019-05-14T08:00:58.586Z,10.20
2019-05-14T08:01:38.890Z,8.60
2019-05-14T08:02:19.619Z,13.63
2019-05-14T08:02:58.171Z,8.80
2019-05-14T08:03:38.235Z,8.80
2019-05-14T08:04:19.939Z,9.53
2019-05-14T08:04:58.092Z,11.33
2019-05-14T08:05:38.795Z,10.37
2019-05-14T08:06:18.875Z,13.35
2019-05-14T08:06:58.228Z,13.87
2019-05-14T08:07:38.864Z,10.90
2019-05-14T08:08:18.736Z,9.70
2019-05-14T08:08:59.198Z,7.87
2019-05-14T08:09:38.996Z,11.33
2019-05-14T08:10:18.622Z,8.17
2019-05-14T08:10:59.243Z,10.70
2019-05-14T08:11:38.726Z,8.33
2019-05-14T08:12:19.290Z,7.70
2019-05-14T08:12:58.862Z,12.70
2019-05-14T08:13:39.019Z,9.33
2019-05-14T08:14:18.487Z,10.03
2019-05-14T08:15:14.370Z,9.40
2019-05-14T08:15:39.698Z,7.13
2019-05-14T08:16:18.836Z,8.50
2019-05-14T08:16:59.476Z,7.80
2019-05-14T08:17:38.731Z,9.77
2019-05-14T08:18:18.834Z,9.77
2019-05-14T08:18:59.940Z,7.57
2019-05-14T08:19:38.639Z,9.87
2019-05-14T08:20:18.331Z,14.83
2019-05-14T08:20:59.183Z,9.10
2019-05-14T08:21:38.703Z,11.17
2019-05-14T08:22:18.650Z,7.17
2019-05-14T08:22:58.265Z,12.60
2019-05-14T08:23:39.091Z,7.53
2019-05-14T08:24:20.172Z,271.37
2019-05-14T08:24:58.105Z,381.50
2019-05-14T08:25:39.012Z,414.33
2019-05-14T08:26:19.184Z,345.33
2019-05-14T08:26:58.114Z,385.50
2019-05-14T08:27:38.890Z,282.60
2019-05-14T08:28:21.185Z,300.57
2019-05-14T08:28:59.995Z,392.17
2019-05-14T08:29:58.929Z,449.43
2019-05-14T08:30:38.883Z,384.07
2019-05-14T08:31:18.761Z,263.77
2019-05-14T08:31:58.265Z,333.20
2019-05-14T08:32:39.052Z,261.67
2019-05-14T08:33:18.455Z,428.63
2019-05-14T08:33:59.118Z,475.10
2019-05-14T08:34:38.919Z,333.23
2019-05-14T08:35:18.533Z,259.17
2019-05-14T08:35:58.255Z,439.50
2019-05-14T08:36:38.027Z,524.87
2019-05-14T08:37:19.150Z,213.73
2019-05-14T08:38:05.551Z,354.53
2019-05-14T08:38:38.265Z,425.73
2019-05-14T08:39:18.600Z,441.43
2019-05-14T08:39:58.860Z,434.17
2019-05-14T08:40:38.217Z,319.27
2019-05-14T08:41:19.521Z,261.40
2019-05-14T08:42:03.680Z,78.67
2019-05-14T08:42:38.574Z,13.90
2019-05-14T08:43:18.546Z,9.30
2019-05-14T08:43:59.490Z,9.40
2019-05-14T08:44:38.939Z,9.87
2019-05-14T08:45:18.987Z,9.93
2019-05-14T08:46:02.496Z,13.67
2019-05-14T08:46:44.696Z,8.87
2019-05-14T08:47:21.734Z,9.87
2019-05-14T08:48:00.475Z,7.57
2019-05-14T08:48:39.177Z,12.30
2019-05-14T08:49:18.506Z,10.80
2019-05-14T08:49:59.890Z,9.80
2019-05-14T08:50:39.197Z,8.13
2019-05-14T08:51:18.648Z,7.57
2019-05-14T08:51:59.573Z,8.83
2019-05-14T08:52:39.259Z,8.27
2019-05-14T08:53:18.712Z,7.37
2019-05-14T08:53:59.211Z,8.47
2019-05-14T08:54:39.085Z,8.27
2019-05-14T08:55:18.560Z,8.30
2019-05-14T08:55:58.870Z,6.30
2019-05-14T08:56:38.908Z,6.93
2019-05-14T08:57:19.009Z,8.00
2019-05-14T08:57:59.225Z,7.50
2019-05-14T08:58:38.690Z,7.37
2019-05-14T08:59:19.412Z,8.33
2019-05-14T08:59:59.322Z,11.80
2019-05-14T09:00:38.707Z,12.37
2019-05-14T09:01:19.457Z,8.90
2019-05-14T09:02:05.866Z,10.60
2019-05-14T09:02:39.269Z,7.17
2019-05-14T09:03:19.324Z,7.27
2019-05-14T09:03:59.579Z,8.93
2019-05-14T09:04:42.768Z,9.90
2019-05-14T09:05:19.866Z,9.13
2019-05-14T09:06:00.816Z,7.10
2019-05-14T09:06:38.695Z,7.57
2019-05-14T09:07:18.521Z,10.37
2019-05-14T09:07:58.151Z,6.77
2019-05-14T09:08:39.236Z,7.47
2019-05-14T09:09:18.545Z,7.23
2019-05-14T09:10:01.062Z,6.47
2019-05-14T09:10:41.140Z,9.97
2019-05-14T09:11:24.386Z,11.33
2019-05-14T09:12:00.040Z,8.10
2019-05-14T09:12:39.087Z,7.03
2019-05-14T09:13:18.397Z,6.60
2019-05-14T09:13:59.248Z,13.20
2019-05-14T09:14:38.842Z,6.43
2019-05-14T09:15:18.653Z,6.80
2019-05-14T09:15:58.277Z,9.13
2019-05-14T09:16:46.133Z,6.63
2019-05-14T09:17:18.690Z,12.03
2019-05-14T09:17:59.074Z,8.30
2019-05-14T09:18:38.694Z,7.57
2019-05-14T09:19:19.304Z,7.07
2019-05-14T09:20:06.126Z,7.70
2019-05-14T09:20:38.614Z,7.10
2019-05-14T09:21:17.132Z,7.87
2019-05-14T09:21:58.573Z,9.30
2019-05-14T09:22:36.311Z,10.07
2019-05-14T09:23:15.202Z,5.33
2019-05-14T09:23:53.540Z,7.97
2019-05-14T09:24:32.449Z,5.50
2019-05-14T09:25:11.391Z,5.90
2019-05-14T09:25:53.217Z,8.03
2019-05-14T09:26:30.147Z,7.07
2019-05-14T09:27:09.103Z,7.20
2019-05-14T09:27:49.381Z,10.17
2019-05-14T09:28:28.609Z,10.33
2019-05-14T09:29:19.491Z,7.23
2019-05-14T09:29:48.456Z,9.07
2019-05-14T09:30:29.015Z,7.70
2019-05-14T09:31:08.433Z,6.43
2019-05-14T09:31:49.437Z,9.83
2019-05-14T09:32:29.167Z,9.50
2019-05-14T09:33:08.689Z,5.83
2019-05-14T09:33:49.433Z,8.90
2019-05-14T09:34:29.113Z,8.37
2019-05-14T09:35:09.765Z,6.80
2019-05-14T09:35:49.271Z,6.30
2019-05-14T09:36:28.913Z,8.10
2019-05-14T09:37:08.681Z,11.23
2019-05-14T09:37:51.040Z,8.03
2019-05-14T09:38:29.385Z,8.10
2019-05-14T09:39:12.172Z,6.73
2019-05-14T09:39:49.438Z,5.47
2019-05-14T09:40:28.993Z,10.53
2019-05-14T09:41:14.698Z,8.40
2019-05-14T09:41:48.235Z,9.40
2019-05-14T09:42:28.598Z,5.83
2019-05-14T09:43:09.224Z,6.00
2019-05-14T09:43:49.702Z,7.17
2019-05-14T09:44:29.248Z,7.37
2019-05-14T09:45:11.154Z,7.00
2019-05-14T09:45:48.902Z,8.10
2019-05-14T09:46:28.922Z,9.03
2019-05-14T09:47:08.624Z,6.37
2019-05-14T09:47:50.399Z,7.37
2019-05-14T09:48:28.584Z,6.40
2019-05-14T09:49:08.054Z,6.57
2019-05-14T09:49:49.104Z,7.97
2019-05-14T09:50:29.159Z,8.17
2019-05-14T09:51:09.260Z,19.87
2019-05-14T09:51:48.888Z,9.73
2019-05-14T09:52:29.352Z,11.70
2019-05-14T09:53:09.735Z,7.23
2019-05-14T09:53:49.052Z,8.00
2019-05-14T09:54:28.856Z,5.27
2019-05-14T09:55:09.368Z,9.17
2019-05-14T09:55:49.133Z,9.27
2019-05-14T09:56:29.102Z,7.43
2019-05-14T09:57:08.397Z,7.83
2019-05-14T09:57:49.102Z,8.17
2019-05-14T09:58:28.261Z,8.07
2019-05-14T09:59:09.018Z,8.47
2019-05-14T09:59:47.944Z,8.83
2019-05-14T10:00:27.089Z,6.43
2019-05-14T10:01:08.298Z,9.83
2019-05-14T10:01:45.797Z,9.80
2019-05-14T10:02:24.734Z,6.20
2019-05-14T10:03:04.676Z,8.70
2019-05-14T10:03:44.508Z,10.40
2019-05-14T10:04:23.611Z,13.07
2019-05-14T10:05:02.545Z,6.43
2019-05-14T10:05:41.347Z,9.60
2019-05-14T10:06:20.852Z,8.33
2019-05-14T10:06:59.686Z,8.40
2019-05-14T10:07:39.224Z,9.00
2019-05-14T10:08:19.368Z,10.90
2019-05-14T10:08:59.001Z,9.47
2019-05-14T10:09:38.909Z,6.53
2019-05-14T10:10:19.587Z,8.83
2019-05-14T10:11:00.386Z,11.00
2019-05-14T10:11:38.480Z,9.93
2019-05-14T10:12:18.257Z,7.73
2019-05-14T10:13:01.252Z,8.47
2019-05-14T10:13:39.446Z,8.43
2019-05-14T10:14:18.514Z,13.13
2019-05-14T10:14:59.192Z,10.80
2019-05-14T10:15:39.111Z,10.40
2019-05-14T10:16:18.918Z,9.03
2019-05-14T10:16:58.362Z,8.83
2019-05-14T10:17:39.328Z,8.20
2019-05-14T10:18:19.056Z,7.90
2019-05-14T10:18:57.536Z,8.33
2019-05-14T10:19:39.283Z,7.53
2019-05-14T10:20:35.692Z,8.83
2019-05-14T10:20:59.068Z,10.37
2019-05-14T10:21:38.776Z,6.80
2019-05-14T10:22:19.818Z,7.73
2019-05-14T10:22:58.588Z,6.03
2019-05-14T10:23:38.964Z,7.60
2019-05-14T10:24:18.644Z,8.70
2019-05-14T10:24:58.233Z,8.20
2019-05-14T10:25:40.183Z,7.07
2019-05-14T10:26:18.535Z,7.33
2019-05-14T10:26:58.576Z,7.80
2019-05-14T10:27:37.481Z,12.20
2019-05-14T10:28:18.937Z,8.47
2019-05-14T10:28:58.863Z,7.50
2019-05-14T10:29:39.128Z,9.67
2019-05-14T10:30:18.123Z,9.23
2019-05-14T10:30:59.457Z,6.00
2019-05-14T10:31:39.536Z,6.43
2019-05-14T10:32:18.637Z,6.63
2019-05-14T10:33:06.955Z,10.70
2019-05-14T10:33:38.082Z,9.37
2019-05-14T10:34:18.997Z,11.53
2019-05-14T10:34:58.865Z,11.80
2019-05-14T10:35:39.103Z,14.57
2019-05-14T10:36:19.278Z,19.97
2019-05-14T10:36:59.080Z,7.10
2019-05-14T10:37:39.929Z,14.03
2019-05-14T10:38:19.008Z,9.43
2019-05-14T10:38:58.850Z,13.30
2019-05-14T10:39:39.080Z,7.30
2019-05-14T10:40:18.376Z,6.40
2019-05-14T10:40:58.371Z,9.67
2019-05-14T10:41:38.542Z,11.20
2019-05-14T10:42:19.864Z,9.00
2019-05-14T10:42:57.542Z,11.83
2019-05-14T10:43:38.948Z,11.33
2019-05-14T10:44:18.701Z,8.97
2019-05-14T10:44:58.686Z,10.93
2019-05-14T10:45:38.474Z,9.67
2019-05-14T10:46:19.334Z,8.13
2019-05-14T10:46:58.264Z,7.13
2019-05-14T10:47:39.716Z,7.37
2019-05-14T10:48:18.757Z,8.40
2019-05-14T10:49:00.261Z,9.23
2019-05-14T10:49:38.702Z,8.33
2019-05-14T10:50:18.438Z,8.35
2019-05-14T10:51:03.364Z,11.17
2019-05-14T10:51:38.932Z,11.00
2019-05-14T10:52:19.673Z,9.70
2019-05-14T10:52:59.474Z,7.60
2019-05-14T10:53:38.174Z,9.93
2019-05-14T10:54:24.997Z,9.30
2019-05-14T10:54:59.048Z,8.57
2019-05-14T10:55:38.667Z,9.40
2019-05-14T10:56:19.227Z,9.23
2019-05-14T10:57:00.028Z,8.30
2019-05-14T10:57:38.771Z,11.83
2019-05-14T10:58:19.497Z,9.00
2019-05-14T10:58:58.474Z,9.13
2019-05-14T10:59:37.040Z,10.50
2019-05-14T11:00:18.480Z,9.53
2019-05-14T11:00:58.656Z,9.00
2019-05-14T11:01:38.907Z,12.07
2019-05-14T11:02:18.567Z,7.50
2019-05-14T11:02:57.088Z,10.23
2019-05-14T11:03:35.831Z,13.97
2019-05-14T11:04:14.742Z,5.87
2019-05-14T11:04:53.307Z,13.40
2019-05-14T11:05:32.027Z,19.03
2019-05-14T11:06:11.667Z,9.43
2019-05-14T11:06:50.957Z,10.33
2019-05-14T11:07:29.410Z,15.83
2019-05-14T11:08:11.802Z,10.60
2019-05-14T11:08:49.229Z,12.17
2019-05-14T11:09:28.584Z,12.83
2019-05-14T11:10:09.226Z,10.43
2019-05-14T11:10:49.755Z,7.70
2019-05-14T11:11:29.015Z,9.40
2019-05-14T11:12:08.979Z,7.87
2019-05-14T11:12:50.690Z,8.73
2019-05-14T11:13:29.369Z,9.80
2019-05-14T11:14:09.206Z,13.57
2019-05-14T11:14:49.341Z,9.23
2019-05-14T11:15:28.523Z,13.30
2019-05-14T11:16:08.573Z,14.10
2019-05-14T11:16:48.561Z,12.00
2019-05-14T11:17:29.101Z,9.43
2019-05-14T11:18:08.655Z,10.50
2019-05-14T11:18:49.647Z,8.57
2019-05-14T11:19:28.238Z,12.77
2019-05-14T11:20:08.061Z,7.17
2019-05-14T11:20:52.884Z,12.97
2019-05-14T11:21:31.623Z,8.33
2019-05-14T11:22:10.551Z,11.80
2019-05-14T11:22:49.534Z,11.30
2019-05-14T11:23:29.750Z,13.33
2019-05-14T11:24:09.537Z,8.77
2019-05-14T11:24:49.191Z,11.43
2019-05-14T11:25:28.772Z,10.10
2019-05-14T11:26:09.173Z,11.63
2019-05-14T11:26:49.598Z,8.77
2019-05-14T11:27:29.239Z,12.10
2019-05-14T11:28:08.839Z,16.93
2019-05-14T11:28:49.219Z,22.40
2019-05-14T11:29:29.492Z,9.23
2019-05-14T11:30:08.912Z,9.43
2019-05-14T11:30:49.514Z,14.30
2019-05-14T11:31:29.473Z,11.47
2019-05-14T11:32:09.887Z,288.30
2019-05-14T11:32:49.264Z,420.83
2019-05-14T11:33:29.719Z,323.47
2019-05-14T11:34:08.709Z,251.77
2019-05-14T11:34:47.639Z,316.37
2019-05-14T11:35:28.606Z,305.23
2019-05-14T11:36:18.789Z,315.83
2019-05-14T11:36:49.442Z,291.00
2019-05-14T11:37:28.116Z,235.33
2019-05-14T11:38:25.914Z,319.10
2019-05-14T11:38:50.268Z,386.17
2019-05-14T11:39:28.784Z,477.20
2019-05-14T11:40:08.764Z,326.63
2019-05-14T11:40:49.494Z,383.43
2019-05-14T13:51:33.565Z,12.03
2019-05-14T13:52:15.397Z,11.80
2019-05-14T13:53:03.242Z,26.10
2019-05-14T13:53:35.472Z,14.83
2019-05-14T13:54:15.144Z,14.40
2019-05-14T13:54:54.630Z,14.67
2019-05-14T13:55:34.351Z,12.53
2019-05-14T13:56:13.612Z,23.13
2019-05-14T13:56:54.290Z,12.10
2019-05-14T13:57:33.531Z,7.93
2019-05-14T13:58:53.475Z,16.70
2019-05-14T13:59:32.207Z,15.10
2019-05-14T14:00:12.791Z,5.87
2019-05-14T14:00:52.319Z,17.73
2019-05-14T14:01:40.355Z,15.50
2019-05-14T14:02:19.720Z,17.33
2019-05-14T14:02:59.014Z,14.17
2019-05-14T14:03:47.982Z,7.60
2019-05-14T14:04:38.190Z,12.53
2019-05-14T14:05:19.891Z,19.13
2019-05-14T14:05:59.340Z,9.27
2019-05-14T14:06:40.961Z,14.77
2019-05-14T14:07:31.046Z,6.67
2019-05-14T14:08:09.763Z,16.80
2019-05-14T14:08:48.853Z,28.27
2019-05-14T14:09:31.575Z,8.93
2019-05-14T14:10:17.116Z,13.17
2019-05-14T14:11:02.178Z,11.40
2019-05-14T14:11:38.195Z,19.03
2019-05-14T14:12:16.364Z,10.80
2019-05-14T14:12:55.904Z,20.13
2019-05-14T14:13:35.320Z,9.90
2019-05-14T14:14:14.432Z,13.47
2019-05-14T14:14:53.827Z,19.57
2019-05-14T14:15:33.897Z,25.40
2019-05-14T14:16:15.150Z,11.27
2019-05-14T14:16:53.828Z,11.10
2019-05-14T14:17:33.370Z,10.03
2019-05-14T14:18:12.519Z,9.40
2019-05-14T14:18:51.691Z,12.33
2019-05-14T14:19:30.913Z,13.60
2019-05-14T14:20:10.160Z,22.13
2019-05-14T14:20:49.270Z,10.87
2019-05-14T14:21:30.050Z,10.90
2019-05-14T14:22:10.162Z,12.67
2019-05-14T14:22:50.128Z,15.00
2019-05-14T14:23:31.330Z,11.17
2019-05-14T14:24:10.163Z,11.43
2019-05-14T14:24:49.587Z,7.43
2019-05-14T14:25:29.838Z,9.97
2019-05-14T14:26:09.698Z,15.40
2019-05-14T14:26:52.316Z,14.03
2019-05-14T14:27:31.696Z,16.33